Time;durP1;ratioP1;P1;durP2;ratioP2;P2;SDS_P1;SDS_P2;PMS_P1;PMS_P2;Temp;Humidity;BMP_temperature;BMP_pressure;BME280_temperature;BME280_humidity;BME280_pressure;Samples;Min_cycle;Max_cycle;Signal;HPM_P1;HPM_P2
2022/08/01 00:00:09;;;;;;;8.80;5.00;;;;;;;14.95;100.00;97662.95;108271;1288;22357;-88
2022/08/01 00:02:57;;;;;;;11.40;5.10;;;;;;;14.92;100.00;97667.41;108276;1287;23215;-88
2022/08/01 00:05:25;;;;;;;9.60;5.90;;;;;;;14.87;100.00;97668.33;108275;1287;22176;-87
2022/08/01 00:07:53;;;;;;;10.00;5.10;;;;;;;14.84;100.00;97667.10;108287;1288;22451;-87
2022/08/01 00:10:21;;;;;;;11.30;5.60;;;;;;;14.81;100.00;97661.98;108105;1288;22343;-87
2022/08/01 00:12:50;;;;;;;7.80;5.70;;;;;;;14.77;100.00;97659.28;108246;1288;22187;-87
2022/08/01 00:15:18;;;;;;;10.70;6.00;;;;;;;14.75;100.00;97660.52;107804;1288;22267;-89
2022/08/01 00:17:46;;;;;;;10.30;6.60;;;;;;;14.71;100.00;97659.84;108275;1287;22472;-88
2022/08/01 00:20:14;;;;;;;7.20;6.10;;;;;;;14.66;100.00;97658.79;108278;1287;22441;-87
2022/08/01 00:22:42;;;;;;;9.00;6.30;;;;;;;14.62;100.00;97658.88;108276;1288;22261;-87
2022/08/01 00:25:10;;;;;;;9.00;6.40;;;;;;;14.57;100.00;97654.59;108298;1288;22310;-86
2022/08/01 00:27:38;;;;;;;9.60;6.70;;;;;;;14.53;100.00;97654.73;108251;1288;22370;-85
2022/08/01 00:30:07;;;;;;;9.80;6.60;;;;;;;14.51;100.00;97653.11;108144;1288;22300;-85
2022/08/01 00:32:42;;;;;;;9.70;6.40;;;;;;;14.46;100.00;97651.00;108134;1287;22270;-86
2022/08/01 00:35:11;;;;;;;10.60;6.70;;;;;;;14.43;100.00;97647.45;108083;1288;22189;-85
2022/08/01 00:37:39;;;;;;;9.10;6.80;;;;;;;14.38;100.00;97644.86;108292;1288;23010;-86
2022/08/01 00:40:07;;;;;;;7.00;6.20;;;;;;;14.35;100.00;97647.98;108270;1288;22482;-85
2022/08/01 00:42:35;;;;;;;6.70;6.10;;;;;;;14.28;100.00;97649.29;108278;1287;23007;-85
2022/08/01 00:45:11;;;;;;;9.90;7.60;;;;;;;14.25;100.00;97647.85;108275;1288;22397;-84
2022/08/01 00:47:39;;;;;;;10.40;6.70;;;;;;;14.22;100.00;97649.36;108282;1285;22423;-85
2022/08/01 00:50:08;;;;;;;8.20;7.40;;;;;;;14.18;100.00;97652.61;108286;1288;22376;-86
2022/08/01 00:52:36;;;;;;;10.20;6.70;;;;;;;14.17;100.00;97650.10;108292;1288;22370;-87
2022/08/01 00:55:05;;;;;;;8.60;7.00;;;;;;;14.15;100.00;97646.77;108289;1287;22494;-86
2022/08/01 00:57:33;;;;;;;8.00;7.20;;;;;;;14.15;100.00;97645.73;108285;1288;22436;-88
2022/08/01 01:00:21;;;;;;;10.90;6.60;;;;;;;14.13;100.00;97645.70;108273;1287;22451;-87
2022/08/01 01:02:54;;;;;;;11.10;7.60;;;;;;;14.11;100.00;97641.27;108299;1288;22344;-87
2022/08/01 01:05:22;;;;;;;7.90;6.10;;;;;;;14.09;100.00;97642.27;108127;1288;22314;-87
2022/08/01 01:08:04;;;;;;;8.60;6.80;;;;;;;14.07;100.00;97648.56;108305;1288;22310;-87
2022/08/01 01:10:40;;;;;;;9.40;7.00;;;;;;;14.09;100.00;97649.48;108292;1287;22288;-87
2022/08/01 01:13:43;;;;;;;40.10;8.20;;;;;;;14.05;100.00;97653.42;108117;1288;22554;-88
2022/08/01 01:16:21;;;;;;;7.70;6.50;;;;;;;14.04;100.00;97651.98;107281;1296;22509;-87
2022/08/01 01:18:55;;;;;;;10.10;6.20;;;;;;;14.03;100.00;97649.56;107346;1295;22724;-87
2022/08/01 01:21:39;;;;;;;7.50;6.50;;;;;;;14.01;100.00;97648.38;107305;1296;22374;-87
2022/08/01 01:24:37;;;;;;;11.40;7.20;;;;;;;14.00;100.00;97645.54;107372;1295;23094;-87
2022/08/01 01:27:44;;;;;;;9.30;6.80;;;;;;;13.98;100.00;97645.44;107345;1295;22479;-86
2022/08/01 01:30:12;;;;;;;7.60;6.40;;;;;;;13.97;100.00;97645.97;107275;1296;23279;-87
2022/08/01 01:32:44;;;;;;;9.00;6.80;;;;;;;13.96;100.00;97640.60;107341;1295;22549;-88
2022/08/01 01:35:22;;;;;;;8.50;6.20;;;;;;;13.95;100.00;97644.68;107295;1295;22410;-87
2022/08/01 01:37:57;;;;;;;8.90;6.30;;;;;;;13.94;100.00;97646.51;107356;1295;22308;-87
2022/08/01 01:40:27;;;;;;;7.60;6.50;;;;;;;13.98;100.00;97647.08;107244;1295;23203;-86
2022/08/01 01:42:56;;;;;;;7.40;6.70;;;;;;;14.00;100.00;97645.73;107362;1295;22481;-87
2022/08/01 01:45:25;;;;;;;10.60;6.40;;;;;;;14.04;100.00;97648.36;107233;1296;22510;-88
2022/08/01 01:47:56;;;;;;;11.20;6.70;;;;;;;14.08;100.00;97648.96;107369;1295;23090;-87
2022/08/01 01:51:04;;;;;;;8.90;6.60;;;;;;;14.07;100.00;97650.34;107354;1296;23110;-87
2022/08/01 01:54:12;;;;;;;8.40;7.50;;;;;;;14.15;100.00;97648.48;108287;1287;22385;-87
2022/08/01 01:57:20;;;;;;;9.00;6.60;;;;;;;14.44;100.00;97651.43;107507;1287;826949;-87
2022/08/01 02:00:45;;;;;;;9.20;7.30;;;;;;;14.90;100.00;97648.82;108269;1287;22330;-89
2022/08/01 02:04:42;;;;;;;10.20;8.10;;;;;;;15.37;100.00;97646.96;107882;1289;23425;-87
2022/08/01 02:08:10;;;;;;;7.80;6.80;;;;;;;15.62;100.00;97642.30;107906;1290;22664;-88
2022/08/01 02:11:58;;;;;;;8.90;7.70;;;;;;;15.99;100.00;97645.92;107890;1291;22474;-88
2022/08/01 02:15:19;;;;;;;9.30;7.50;;;;;;;16.26;100.00;97644.95;107889;1290;22515;-86
2022/08/01 02:19:06;;;;;;;7.50;6.80;;;;;;;16.79;100.00;97642.04;107870;1289;22404;-87
2022/08/01 02:22:36;;;;;;;12.90;7.10;;;;;;;17.22;100.00;97641.83;107851;1290;22507;-88
2022/08/01 02:26:08;;;;;;;10.70;6.70;;;;;;;17.65;98.50;97643.08;107820;1290;23157;-88
2022/08/01 02:29:23;;;;;;;9.10;7.60;;;;;;;17.88;97.06;97653.70;107523;1293;23165;-88
2022/08/01 02:31:54;;;;;;;12.40;6.40;;;;;;;17.90;98.17;97652.90;107389;1294;22496;-88
2022/08/01 02:34:25;;;;;;;7.30;5.30;;;;;;;17.76;96.99;97650.60;107800;1290;23330;-87
2022/08/01 02:36:56;;;;;;;12.20;5.90;;;;;;;17.90;96.66;97648.22;108015;1290;22303;-88
2022/08/01 02:39:28;;;;;;;7.00;5.30;;;;;;;17.99;95.80;97649.48;107995;1288;22521;-87
2022/08/01 02:42:00;;;;;;;10.10;6.70;;;;;;;18.07;94.97;97653.16;107989;1290;22476;-86
2022/08/01 02:44:37;;;;;;;7.50;5.10;;;;;;;18.12;93.77;97655.23;107992;1290;22598;-88
2022/08/01 02:47:06;;;;;;;8.30;5.70;;;;;;;18.22;92.92;97654.66;108003;1290;22542;-86
2022/08/01 02:49:38;;;;;;;7.50;4.20;;;;;;;18.32;90.12;97654.30;107992;1289;22434;-86
2022/08/01 02:52:09;;;;;;;12.10;7.50;;;;;;;18.51;89.70;97650.55;107704;1290;22566;-86
2022/08/01 02:54:40;;;;;;;7.50;6.10;;;;;;;18.54;91.38;97653.52;108002;1290;22464;-86
2022/08/01 02:57:09;;;;;;;8.80;5.80;;;;;;;18.36;92.42;97649.45;107980;1290;23395;-86
2022/08/01 02:59:42;;;;;;;8.50;6.40;;;;;;;18.00;92.40;97652.76;108106;1288;22429;-86
2022/08/01 03:02:13;;;;;;;7.40;6.50;;;;;;;17.76;93.24;97646.71;108293;1287;23160;-87
2022/08/01 03:04:43;;;;;;;10.10;6.90;;;;;;;17.37;92.47;97652.41;108290;1288;22455;-86
2022/08/01 03:07:13;;;;;;;9.40;6.00;;;;;;;16.91;93.01;97647.17;108366;1288;22446;-86
2022/08/01 03:09:44;;;;;;;8.70;6.80;;;;;;;16.76;94.14;97646.45;108299;1288;23157;-86
2022/08/01 03:12:25;;;;;;;15.20;8.20;;;;;;;16.32;92.92;97649.48;108013;1288;22309;-86
2022/08/01 03:14:55;;;;;;;7.90;6.30;;;;;;;15.97;94.36;97648.17;108279;1288;23177;-87
2022/08/01 03:17:26;;;;;;;8.20;6.20;;;;;;;15.99;97.22;97649.25;108305;1287;22315;-86
2022/08/01 03:19:58;;;;;;;7.10;6.40;;;;;;;15.98;96.14;97652.24;108119;1288;22386;-87
2022/08/01 03:22:29;;;;;;;10.20;6.80;;;;;;;16.22;97.07;97653.23;108292;1287;22233;-85
2022/08/01 03:24:59;;;;;;;10.40;8.30;;;;;;;16.34;95.43;97656.56;108277;1287;22410;-88
2022/08/01 03:27:28;;;;;;;12.20;7.20;;;;;;;16.36;94.26;97658.87;108260;1288;22211;-88
2022/08/01 03:29:58;;;;;;;8.90;6.40;;;;;;;16.29;94.47;97654.14;108298;1288;23080;-88
2022/08/01 03:32:28;;;;;;;12.80;6.70;;;;;;;16.32;94.33;97659.90;108096;1288;22298;-88
2022/08/01 03:34:57;;;;;;;9.70;7.10;;;;;;;16.19;92.58;97663.86;108291;1287;22504;-87
2022/08/01 03:37:35;;;;;;;15.20;8.30;;;;;;;16.48;95.87;97658.06;108270;1287;22368;-87
2022/08/01 03:40:21;;;;;;;14.00;8.40;;;;;;;16.64;94.17;97657.05;108309;1287;22253;-86
2022/08/01 03:42:56;;;;;;;13.80;7.90;;;;;;;16.53;92.71;97663.71;108276;1288;22408;-87
2022/08/01 03:45:32;;;;;;;12.90;9.10;;;;;;;16.32;91.69;97662.61;108085;1288;22283;-88
2022/08/01 03:48:03;;;;;;;13.30;10.00;;;;;;;16.21;91.63;97661.96;108292;1287;22481;-87
2022/08/01 03:50:34;;;;;;;31.80;10.20;;;;;;;16.15;92.48;97669.73;108261;1288;22448;-88
2022/08/01 03:53:06;;;;;;;21.20;9.70;;;;;;;16.07;91.73;97675.52;108297;1288;23014;-88
2022/08/01 03:55:37;;;;;;;52.00;12.00;;;;;;;15.93;91.21;97678.23;108263;1288;22522;-87
2022/08/01 03:58:06;;;;;;;23.40;11.60;;;;;;;15.84;92.98;97678.41;108095;1288;22375;-88
2022/08/01 04:00:39;;;;;;;39.00;34.50;;;;;;;16.28;94.81;97677.95;108265;1288;22378;-87
2022/08/01 04:03:08;;;;;;;34.80;16.40;;;;;;;16.50;91.84;97682.60;108254;1288;22301;-88
2022/08/01 04:05:36;;;;;;;75.60;11.70;;;;;;;16.49;91.27;97681.02;108271;1288;22370;-88
2022/08/01 04:08:04;;;;;;;27.00;11.10;;;;;;;16.52;90.48;97681.55;108292;1288;22409;-88
2022/08/01 04:10:32;;;;;;;17.00;11.80;;;;;;;16.43;90.94;97684.88;108307;1287;22305;-88
2022/08/01 04:13:00;;;;;;;18.20;10.00;;;;;;;16.47;91.09;97689.46;108300;1288;22511;-88
2022/08/01 04:15:29;;;;;;;22.90;9.80;;;;;;;16.43;90.13;97693.39;108285;1288;23238;-88
2022/08/01 04:17:56;;;;;;;17.10;10.30;;;;;;;16.22;89.26;97694.80;108272;1286;22337;-88
2022/08/01 04:20:24;;;;;;;26.40;9.90;;;;;;;15.99;89.68;97695.73;108107;1288;22315;-89
2022/08/01 04:22:52;;;;;;;9.90;8.60;;;;;;;15.83;89.39;97695.25;108279;1288;22389;-87
2022/08/01 04:25:34;;;;;;;9.20;8.20;;;;;;;16.04;94.25;97691.02;108274;1288;22470;-88
2022/08/01 04:28:04;;;;;;;5.30;4.80;;;;;;;16.80;91.42;97689.48;108308;1288;22267;-86
2022/08/01 04:30:35;;;;;;;7.80;6.40;;;;;;;17.43;87.43;97691.16;108106;1288;22392;-86
2022/08/01 04:33:07;;;;;;;13.00;10.10;;;;;;;17.89;85.15;97690.80;108264;1288;22397;-87
2022/08/01 04:35:40;;;;;;;13.10;10.50;;;;;;;17.83;86.94;97693.29;108103;1288;22374;-87
2022/08/01 04:38:30;;;;;;;9.90;8.90;;;;;;;17.48;87.11;97688.73;108135;1288;23020;-87
2022/08/01 04:40:59;;;;;;;15.20;10.90;;;;;;;17.15;87.35;97692.81;108105;1288;22298;-86
2022/08/01 04:43:38;;;;;;;13.20;9.30;;;;;;;16.75;86.75;97696.77;108261;1288;23080;-86
2022/08/01 04:46:07;;;;;;;12.30;10.30;;;;;;;16.25;87.05;97688.59;108096;1288;23070;-86
2022/08/01 04:48:38;;;;;;;14.50;10.90;;;;;;;16.05;88.36;97688.48;108263;1288;22979;-86
2022/08/01 04:51:16;;;;;;;12.80;11.50;;;;;;;15.92;87.45;97686.21;108274;1288;22243;-87
2022/08/01 04:53:45;;;;;;;11.60;10.60;;;;;;;15.59;87.62;97686.76;108283;1287;23126;-86
2022/08/01 04:56:14;;;;;;;13.00;11.60;;;;;;;15.43;88.39;97691.84;108276;1288;22381;-86
2022/08/01 04:58:43;;;;;;;11.50;10.60;;;;;;;15.37;88.84;97686.83;108044;1288;22495;-85
2022/08/01 05:01:11;;;;;;;12.90;11.60;;;;;;;15.45;90.43;97684.63;108270;1288;22377;-86
2022/08/01 05:03:39;;;;;;;10.90;9.90;;;;;;;15.83;93.22;97680.82;108282;1288;22313;-86
2022/08/01 05:06:07;;;;;;;11.50;10.50;;;;;;;16.26;90.19;97684.34;108279;1288;22479;-86
2022/08/01 05:08:35;;;;;;;13.10;10.60;;;;;;;16.23;89.15;97688.06;108281;1288;22452;-87
2022/08/01 05:11:04;;;;;;;12.60;11.40;;;;;;;16.11;89.41;97687.91;108276;1288;22301;-86
2022/08/01 05:13:32;;;;;;;13.00;11.70;;;;;;;16.04;89.59;97690.23;108267;1288;22410;-86
2022/08/01 05:16:00;;;;;;;11.70;10.60;;;;;;;15.95;89.91;97688.80;108264;1288;22288;-86
2022/08/01 05:18:27;;;;;;;10.40;8.50;;;;;;;16.18;96.47;97688.59;108279;1288;22418;-86
2022/08/01 05:20:57;;;;;;;9.40;8.20;;;;;;;16.72;94.32;97684.27;108295;1288;22250;-86
2022/08/01 05:23:25;;;;;;;13.90;10.20;;;;;;;17.06;92.03;97686.94;108325;1288;22913;-86
2022/08/01 05:26:11;;;;;;;12.70;11.00;;;;;;;17.14;90.43;97686.16;108279;1288;22388;-86
2022/08/01 05:28:42;;;;;;;12.20;10.00;;;;;;;17.03;90.31;97690.94;108274;1288;22352;-84
2022/08/01 05:31:10;;;;;;;12.20;10.90;;;;;;;16.98;90.24;97690.46;108009;1288;22350;-86
2022/08/01 05:33:37;;;;;;;13.60;10.90;;;;;;;16.81;89.56;97688.34;108267;1288;22291;-85
2022/08/01 05:36:05;;;;;;;13.40;11.30;;;;;;;16.64;89.84;97688.75;108275;1288;23037;-85
2022/08/01 05:38:34;;;;;;;19.20;11.80;;;;;;;16.52;90.46;97682.87;108049;1287;22345;-85
2022/08/01 05:41:02;;;;;;;15.40;12.80;;;;;;;16.46;90.43;97686.59;108290;1288;22494;-85
2022/08/01 05:43:29;;;;;;;17.00;13.10;;;;;;;16.38;90.61;97691.48;108132;1288;22415;-86
2022/08/01 05:45:58;;;;;;;16.60;12.70;;;;;;;16.36;90.74;97691.25;108243;1288;22496;-86
2022/08/01 05:48:26;;;;;;;14.30;12.20;;;;;;;16.33;90.76;97689.77;108063;1288;22397;-86
2022/08/01 05:50:54;;;;;;;13.80;10.90;;;;;;;16.45;91.65;97684.54;108260;1288;22299;-86
2022/08/01 05:53:26;;;;;;;13.10;11.70;;;;;;;16.55;92.38;97684.77;108259;1288;22466;-85
2022/08/01 05:55:54;;;;;;;14.80;12.40;;;;;;;16.81;92.89;97684.00;108122;1288;22402;-86
2022/08/01 05:58:22;;;;;;;14.60;13.10;;;;;;;16.88;91.51;97687.46;108276;1287;22299;-86
2022/08/01 06:00:50;;;;;;;15.60;14.00;;;;;;;16.85;91.03;97689.73;108137;1288;22418;-86
2022/08/01 06:03:19;;;;;;;15.20;12.20;;;;;;;16.77;90.88;97690.58;108128;1288;22289;-85
2022/08/01 06:05:47;;;;;;;15.10;13.40;;;;;;;16.76;91.93;97693.17;108083;1289;23293;-85
2022/08/01 06:08:14;;;;;;;17.70;13.00;;;;;;;16.88;91.66;97696.77;108248;1288;23081;-86
2022/08/01 06:10:42;;;;;;;15.20;12.80;;;;;;;16.82;91.13;97698.41;108249;1288;22527;-86
2022/08/01 06:13:10;;;;;;;14.30;12.70;;;;;;;16.82;91.82;97697.16;108247;1288;22301;-86
2022/08/01 06:15:38;;;;;;;15.40;12.80;;;;;;;17.00;92.38;97694.64;108258;1288;22417;-85
2022/08/01 06:18:06;;;;;;;14.40;11.90;;;;;;;17.09;91.38;97696.39;108243;1288;22467;-86
2022/08/01 06:20:34;;;;;;;15.80;12.00;;;;;;;17.09;91.51;97695.30;108247;1288;22423;-86
2022/08/01 06:23:02;;;;;;;14.20;10.80;;;;;;;17.18;91.63;97699.12;108095;1288;22552;-86
2022/08/01 06:25:54;;;;;;;14.20;12.30;;;;;;;17.19;91.00;97702.64;108137;1288;23018;-86
2022/08/01 06:28:22;;;;;;;16.80;11.40;;;;;;;17.13;91.08;97701.07;108286;1288;22255;-86
2022/08/01 06:30:50;;;;;;;12.20;10.10;;;;;;;17.14;91.05;97704.37;108260;1288;22590;-86
2022/08/01 06:33:18;;;;;;;12.40;10.70;;;;;;;17.16;91.05;97703.42;108257;1289;22295;-85
2022/08/01 06:35:46;;;;;;;12.60;9.80;;;;;;;17.22;91.17;97703.02;108137;1289;22904;-85
2022/08/01 06:38:14;;;;;;;12.10;10.80;;;;;;;17.27;90.36;97701.30;108242;1288;22356;-86
2022/08/01 06:40:42;;;;;;;15.10;13.60;;;;;;;17.33;92.54;97698.20;108230;1288;23094;-85
2022/08/01 06:43:11;;;;;;;12.20;10.40;;;;;;;17.61;91.24;97701.52;108265;1288;22323;-85
2022/08/01 06:45:39;;;;;;;13.90;10.10;;;;;;;17.68;89.71;97709.95;108228;1288;22430;-85
2022/08/01 06:48:07;;;;;;;13.30;8.60;;;;;;;17.67;90.04;97713.20;108238;1288;22412;-85
2022/08/01 06:50:36;;;;;;;17.20;9.40;;;;;;;17.73;89.89;97718.88;108247;1290;23140;-85
2022/08/01 06:53:04;;;;;;;11.10;8.30;;;;;;;17.79;89.99;97718.96;108262;1288;22399;-88
2022/08/01 06:55:32;;;;;;;13.90;8.70;;;;;;;17.88;90.22;97718.74;108124;1288;23161;-86
2022/08/01 06:58:00;;;;;;;9.50;7.60;;;;;;;18.09;90.09;97721.60;108255;1288;23157;-85
2022/08/01 07:00:28;;;;;;;11.00;7.60;;;;;;;18.19;89.16;97722.14;108303;1288;22385;-85
2022/08/01 07:02:59;;;;;;;12.20;7.70;;;;;;;18.24;88.90;97721.02;108128;1289;22453;-86
2022/08/01 07:05:30;;;;;;;10.50;7.10;;;;;;;18.28;88.63;97719.39;108246;1288;22447;-86
2022/08/01 07:07:58;;;;;;;10.50;8.00;;;;;;;18.38;88.91;97721.51;108239;1288;22556;-89
2022/08/01 07:10:26;;;;;;;11.20;8.90;;;;;;;18.50;88.10;97715.07;108251;1288;22536;-86
2022/08/01 07:12:54;;;;;;;15.90;8.00;;;;;;;18.57;87.93;97718.36;108230;1288;22459;-86
2022/08/01 07:15:26;;;;;;;10.20;8.20;;;;;;;18.69;88.55;97718.55;108237;1288;22428;-85
2022/08/01 07:17:54;;;;;;;12.60;7.00;;;;;;;18.93;88.80;97714.33;108131;1288;22479;-85
2022/08/01 07:20:22;;;;;;;14.40;9.80;;;;;;;19.03;87.92;97715.86;108228;1288;22428;-85
2022/08/01 07:22:50;;;;;;;10.20;8.10;;;;;;;19.08;88.11;97718.23;108222;1288;22294;-86
2022/08/01 07:25:18;;;;;;;13.50;8.10;;;;;;;19.36;89.27;97715.58;108243;1287;22434;-85
2022/08/01 07:27:46;;;;;;;10.30;8.90;;;;;;;19.53;87.21;97714.82;108251;1287;22486;-86
2022/08/01 07:30:14;;;;;;;8.10;6.80;;;;;;;19.56;87.26;97713.77;108244;1287;22314;-85
2022/08/01 07:32:42;;;;;;;10.60;5.60;;;;;;;19.64;86.32;97716.88;108219;1288;22462;-86
2022/08/01 07:35:10;;;;;;;8.90;6.60;;;;;;;19.67;86.55;97716.73;108241;1287;22483;-86
2022/08/01 07:37:38;;;;;;;7.80;5.50;;;;;;;19.72;86.70;97720.19;108367;1288;22397;-85
2022/08/01 07:40:17;;;;;;;8.50;6.40;;;;;;;19.81;86.16;97716.67;108362;1287;22415;-85
2022/08/01 07:42:46;;;;;;;10.30;5.90;;;;;;;19.83;84.96;97710.46;108338;1288;22331;-85
2022/08/01 07:45:15;;;;;;;8.70;4.70;;;;;;;19.92;86.04;97711.25;108262;1288;23500;-85
2022/08/01 07:47:43;;;;;;;9.20;5.00;;;;;;;20.22;86.67;97707.82;108231;1288;22522;-85
2022/08/01 07:50:12;;;;;;;6.90;4.70;;;;;;;20.45;85.14;97708.10;108112;1288;22397;-85
2022/08/01 07:52:41;;;;;;;13.60;7.90;;;;;;;20.50;83.38;97709.58;108242;1288;23051;-85
2022/08/01 07:55:10;;;;;;;8.20;5.70;;;;;;;20.46;81.55;97713.74;108118;1288;22295;-85
2022/08/01 07:57:43;;;;;;;10.00;5.90;;;;;;;20.38;80.70;97706.98;107911;1288;22520;-83
2022/08/01 08:00:13;;;;;;;8.80;4.90;;;;;;;20.43;82.30;97707.14;108241;1288;22382;-85
2022/08/01 08:02:41;;;;;;;9.40;4.70;;;;;;;20.60;82.66;97708.25;108215;1288;22292;-85
2022/08/01 08:05:09;;;;;;;10.50;6.50;;;;;;;20.74;80.11;97706.04;108224;1288;22996;-85
2022/08/01 08:07:38;;;;;;;12.60;7.10;;;;;;;20.67;76.68;97708.29;108130;1288;22405;-85
2022/08/01 08:10:07;;;;;;;10.10;5.10;;;;;;;20.59;76.26;97704.42;108225;1288;22525;-85
2022/08/01 08:12:35;;;;;;;12.80;7.00;;;;;;;20.58;76.62;97700.35;108223;1287;23174;-84
2022/08/01 08:15:05;;;;;;;13.50;7.80;;;;;;;20.63;76.75;97705.42;108222;1288;22405;-84
2022/08/01 08:17:33;;;;;;;7.00;3.60;;;;;;;20.71;75.70;97707.25;108122;1288;22428;-84
2022/08/01 08:20:07;;;;;;;6.00;2.90;;;;;;;20.79;75.12;97709.85;108189;1288;22364;-84
2022/08/01 08:22:36;;;;;;;20.10;9.90;;;;;;;20.91;74.30;97704.63;108228;1286;22357;-84
2022/08/01 08:25:05;;;;;;;9.10;5.70;;;;;;;20.96;72.94;97706.88;108233;1288;22320;-84
2022/08/01 08:27:36;;;;;;;7.90;5.40;;;;;;;20.99;74.90;97705.66;108190;1287;22363;-83
2022/08/01 08:30:07;;;;;;;11.60;4.60;;;;;;;21.07;73.08;97707.80;107928;1288;22337;-84
2022/08/01 08:32:35;;;;;;;8.70;3.70;;;;;;;21.15;75.04;97704.29;108192;1288;22458;-84
2022/08/01 08:35:05;;;;;;;4.90;2.90;;;;;;;21.33;72.40;97713.75;108207;1288;22344;-83
2022/08/01 08:37:35;;;;;;;8.30;3.70;;;;;;;21.41;69.40;97713.07;108212;1287;22326;-83
2022/08/01 08:40:15;;;;;;;7.50;3.30;;;;;;;21.46;70.14;97712.42;108037;1287;22343;-84
2022/08/01 08:42:46;;;;;;;7.60;3.00;;;;;;;21.64;71.17;97710.73;108019;1288;22439;-85
2022/08/01 08:45:14;;;;;;;6.20;3.10;;;;;;;21.89;72.10;97708.63;108213;1288;22360;-85
2022/08/01 08:47:43;;;;;;;5.40;3.20;;;;;;;22.16;71.12;97708.72;108183;1287;22485;-85
2022/08/01 08:50:12;;;;;;;7.70;3.60;;;;;;;22.33;71.23;97708.23;108208;1287;22411;-84
2022/08/01 08:52:40;;;;;;;6.40;3.20;;;;;;;22.51;69.26;97705.38;108202;1287;22381;-84
2022/08/01 08:55:09;;;;;;;9.10;2.80;;;;;;;22.62;69.29;97706.48;108018;1288;22260;-85
2022/08/01 08:57:39;;;;;;;6.70;2.80;;;;;;;22.71;67.52;97705.41;108192;1288;22398;-84
2022/08/01 09:00:09;;;;;;;4.50;3.00;;;;;;;22.81;67.37;97711.91;108181;1287;22406;-84
2022/08/01 09:02:42;;;;;;;5.60;2.70;;;;;;;22.84;66.76;97710.44;108220;1288;22447;-84
2022/08/01 09:05:11;;;;;;;5.10;2.60;;;;;;;22.99;68.45;97708.73;108215;1288;22372;-85
2022/08/01 09:07:45;;;;;;;9.90;3.50;;;;;;;23.24;68.92;97712.23;108209;1288;22393;-85
2022/08/01 09:10:16;;;;;;;8.30;2.60;;;;;;;23.42;67.03;97711.49;108015;1288;23254;-84
2022/08/01 09:13:13;;;;;;;5.00;3.10;;;;;;;23.56;65.92;97711.61;108075;1288;22450;-85
2022/08/01 09:15:46;;;;;;;5.00;2.30;;;;;;;23.65;64.13;97710.29;108135;1288;22323;-84
2022/08/01 09:18:44;;;;;;;4.80;2.60;;;;;;;23.86;63.78;97708.39;108216;1287;22422;-84
2022/08/01 09:21:23;;;;;;;8.20;3.30;;;;;;;23.84;61.59;97710.73;108169;1288;23159;-84
2022/08/01 09:23:54;;;;;;;6.40;2.50;;;;;;;23.98;63.61;97711.63;108120;1288;22332;-84
2022/08/01 09:26:35;;;;;;;7.70;2.90;;;;;;;24.16;63.90;97713.60;107955;1288;22444;-84
2022/08/01 09:29:05;;;;;;;5.50;2.70;;;;;;;24.25;58.32;97714.23;108147;1287;22299;-85
2022/08/01 09:31:42;;;;;;;9.00;2.90;;;;;;;24.09;56.92;97715.02;108104;1288;22348;-84
2022/08/01 09:34:16;;;;;;;5.70;2.80;;;;;;;23.96;58.73;97716.11;108210;1288;22270;-84
2022/08/01 09:36:52;;;;;;;5.40;2.50;;;;;;;24.01;58.84;97718.08;108125;1288;22255;-85
2022/08/01 09:39:30;;;;;;;4.40;2.50;;;;;;;24.15;58.51;97717.69;107962;1287;22495;-84
2022/08/01 09:42:02;;;;;;;4.20;2.90;;;;;;;24.25;57.88;97715.63;108151;1288;23352;-84
2022/08/01 09:44:41;;;;;;;5.00;3.00;;;;;;;24.43;58.00;97715.66;108224;1287;22473;-84
2022/08/01 09:47:21;;;;;;;9.40;3.00;;;;;;;24.50;54.87;97721.56;108137;1288;22455;-84
2022/08/01 09:49:56;;;;;;;5.80;3.00;;;;;;;24.59;53.76;97720.91;108188;1288;22505;-84
2022/08/01 09:52:27;;;;;;;7.00;3.20;;;;;;;24.53;54.49;97721.23;108024;1288;22401;-84
2022/08/01 09:55:07;;;;;;;6.00;3.00;;;;;;;24.49;53.05;97724.63;108161;1288;22376;-84
2022/08/01 09:57:35;;;;;;;5.40;2.70;;;;;;;24.32;53.28;97727.13;108179;1288;22442;-83
2022/08/01 10:00:03;;;;;;;4.90;2.80;;;;;;;24.18;53.16;97727.45;108225;1287;22388;-83
2022/08/01 10:02:41;;;;;;;7.40;3.20;;;;;;;24.24;53.95;97731.54;108233;1288;22316;-84
2022/08/01 10:05:11;;;;;;;8.10;3.10;;;;;;;24.33;54.90;97733.96;108233;1288;22940;-84
2022/08/01 10:07:57;;;;;;;6.90;3.40;;;;;;;24.40;54.32;97737.98;108237;1288;23221;-84
2022/08/01 10:10:26;;;;;;;6.60;3.50;;;;;;;24.40;54.74;97737.44;108259;1288;22227;-84
2022/08/01 10:12:59;;;;;;;6.10;3.20;;;;;;;24.34;54.23;97736.57;108017;1288;22414;-85
2022/08/01 10:15:30;;;;;;;4.40;3.10;;;;;;;24.30;55.31;97734.14;107982;1288;22280;-85
2022/08/01 10:18:07;;;;;;;8.30;3.30;;;;;;;24.33;54.36;97737.52;108141;1288;22991;-85
2022/08/01 10:20:54;;;;;;;9.50;3.10;;;;;;;24.24;53.42;97734.13;108058;1288;22143;-85
2022/08/01 10:23:33;;;;;;;4.90;2.90;;;;;;;24.26;54.04;97731.77;108242;1288;22329;-85
2022/08/01 10:26:10;;;;;;;6.50;3.30;;;;;;;24.17;53.09;97731.77;108238;1287;22850;-85
2022/08/01 10:28:40;;;;;;;3.70;2.60;;;;;;;24.11;54.29;97727.98;108128;1288;23158;-85
2022/08/01 10:31:08;;;;;;;4.70;2.80;;;;;;;24.08;52.17;97729.48;108240;1288;22374;-85
2022/08/01 10:33:41;;;;;;;8.80;2.90;;;;;;;24.05;52.49;97731.22;108211;1288;22306;-85
2022/08/01 10:36:21;;;;;;;10.10;3.30;;;;;;;24.05;53.46;97730.27;108185;1288;22316;-86
2022/08/01 10:38:50;;;;;;;7.10;3.30;;;;;;;24.06;53.47;97728.70;107980;1288;23062;-85
2022/08/01 10:41:19;;;;;;;12.20;3.60;;;;;;;24.09;53.22;97729.89;108186;1288;22956;-86
2022/08/01 10:43:47;;;;;;;9.70;3.50;;;;;;;24.01;53.22;97734.36;108255;1288;22401;-86
2022/08/01 10:46:17;;;;;;;6.20;3.20;;;;;;;23.98;53.36;97729.78;108043;1288;22438;-85
2022/08/01 10:48:52;;;;;;;5.40;2.90;;;;;;;23.93;53.30;97729.86;108274;1288;22346;-85
2022/08/01 10:51:21;;;;;;;5.40;2.90;;;;;;;23.89;53.00;97733.23;108244;1288;23446;-84
2022/08/01 10:54:12;;;;;;;10.50;3.50;;;;;;;23.89;53.04;97735.05;108046;1288;22968;-83
2022/08/01 10:56:47;;;;;;;6.10;3.10;;;;;;;23.91;52.99;97737.55;108022;1288;22294;-82
2022/08/01 10:59:21;;;;;;;8.40;3.10;;;;;;;23.84;52.30;97737.86;108249;1288;22402;-81
2022/08/01 11:02:10;;;;;;;7.80;3.60;;;;;;;23.70;53.26;97737.42;108183;1287;22269;-82
2022/08/01 11:04:54;;;;;;;5.50;3.60;;;;;;;23.66;54.14;97732.15;108183;1288;22408;-82
2022/08/01 11:07:55;;;;;;;9.90;4.30;;;;;;;23.72;54.24;97732.50;108192;1288;22483;-83
2022/08/01 11:10:44;;;;;;;8.40;3.60;;;;;;;23.66;54.10;97733.80;107334;1295;22426;-83
2022/08/01 11:13:13;;;;;;;9.20;3.90;;;;;;;23.50;54.31;97735.02;107294;1295;22537;-83
2022/08/01 11:15:41;;;;;;;9.20;3.90;;;;;;;23.37;54.21;97734.96;107318;1297;22340;-83
2022/08/01 11:18:31;;;;;;;14.00;9.30;;;;;;;23.28;54.51;97742.55;107306;1295;22407;-83
2022/08/01 11:21:01;;;;;;;24.20;16.30;;;;;;;23.26;54.79;97737.76;107257;1296;23348;-83
2022/08/01 11:23:52;;;;;;;13.00;8.00;;;;;;;23.21;55.06;97737.50;107256;1296;22439;-82
2022/08/01 11:26:21;;;;;;;11.30;5.40;;;;;;;23.22;55.22;97736.71;107307;1295;22322;-83
2022/08/01 11:29:14;;;;;;;11.30;6.00;;;;;;;23.26;55.09;97741.61;107281;1297;22353;-82
2022/08/01 11:31:48;;;;;;;21.90;11.30;;;;;;;23.27;55.17;97739.65;107334;1295;23153;-82
2022/08/01 11:34:16;;;;;;;15.80;7.50;;;;;;;23.30;55.12;97741.85;107315;1295;22664;-81
2022/08/01 11:36:45;;;;;;;10.20;4.40;;;;;;;23.29;54.93;97742.71;107293;1296;23117;-83
2022/08/01 11:39:30;;;;;;;8.90;4.90;;;;;;;23.30;55.19;97741.86;107305;1295;22622;-83
2022/08/01 11:42:18;;;;;;;8.80;4.30;;;;;;;23.39;54.50;97738.59;107329;1295;22668;-83
2022/08/01 11:44:50;;;;;;;7.70;3.40;;;;;;;23.39;54.64;97739.60;107314;1295;22270;-83
2022/08/01 11:47:18;;;;;;;7.10;3.70;;;;;;;23.43;54.88;97740.02;108049;1288;22818;-83
2022/08/01 11:49:54;;;;;;;8.50;3.50;;;;;;;23.46;54.97;97741.83;107753;1288;23121;-83